Live aus Altenrhein
LIVE
LSZR 271850Z AUTO 09003KT 9999 -RA SCT045 BKN050 BKN080 18/17 Q1012

People´s Info Center:

Öffnungszeiten Mo-Fr, 8-18 Uhr

 

info@peoples.ch

 
Aus Österreich:

T: +43 (0)5572 203 610

 

Aus CH / LI / DE:

T: +41 (0)71 858 51 60

 

Flüge von Altenrhein & Friedrichshafen nach Köln/Bonn

2x täglich mit People's Viennaline.

 

Köln, die lebendige und dynamische Grossstadt mit einzigartiger Atmosphäre, ist bekannt für hochkarätige Grossevents, ein besonders ausgeprägtes Kulturleben und eine unverwechselbare Gastronomieszene.

 

Sehenswürdigkeiten, wie der als UNESCO-Welterbe anerkannte Dom und die zwölf Romanischen Kirchen vermitteln unvergessliche Eindrücke. Darüber hinaus verfügt die Domstadt über eine hohe Dichte an Museen und Galerien, die sich in vielfältigen Ausstellungen der eigenen Geschichte, aber auch der Moderne und Gegenwart widmen. Ganz besonders steht die Rheinmetropole aber für Lebensfreude, Offenheit und Toleranz – kurzum die „kölsche Lebensart“. Hier wird Gastfreundschaft grossgeschrieben – erleben Sie es selbst!

 

Flug nach Köln buchen
 
 
                       
 
 
 
 
   
   
   
 

Tarife & Fluggutscheine

Alle Preise auf einen Blick.

Vielflieger

Ticketblock mit eigenem Login.

Reverse Charge Verfahren

Geschäftliche Inlandflüge.

Flugplan